createdAt,value
2017-11-26T00:02:24.267Z,4.70
2017-11-26T00:04:51.280Z,4.80
2017-11-26T00:07:17.531Z,4.80
2017-11-26T00:09:43.707Z,4.80
2017-11-26T00:12:09.951Z,4.70
2017-11-26T00:14:36.232Z,4.70
2017-11-26T00:17:02.567Z,4.70
2017-11-26T00:19:28.841Z,4.80
2017-11-26T00:21:55.115Z,4.60
2017-11-26T00:24:22.169Z,4.70
2017-11-26T00:26:48.469Z,4.70
2017-11-26T00:29:14.849Z,4.70
2017-11-26T00:31:41.103Z,4.70
2017-11-26T00:34:07.349Z,4.90
2017-11-26T00:36:33.999Z,4.60
2017-11-26T00:39:00.314Z,4.60
2017-11-26T00:41:26.562Z,4.80
2017-11-26T00:43:52.908Z,4.80
2017-11-26T00:46:19.991Z,4.70
2017-11-26T00:48:46.195Z,4.70
2017-11-26T00:51:13.162Z,4.70
2017-11-26T00:53:39.404Z,4.70
2017-11-26T00:56:06.404Z,4.60
2017-11-26T00:58:33.376Z,4.60
2017-11-26T01:00:59.618Z,4.60
2017-11-26T01:03:25.841Z,4.60
2017-11-26T01:05:52.076Z,4.60
2017-11-26T01:08:19.095Z,4.60
2017-11-26T01:10:45.344Z,4.60
2017-11-26T01:13:11.630Z,4.60
2017-11-26T01:15:38.633Z,4.60
2017-11-26T01:18:04.872Z,4.60
2017-11-26T01:20:31.219Z,4.50
2017-11-26T01:22:57.474Z,4.60
2017-11-26T01:25:23.751Z,4.50
2017-11-26T01:27:49.985Z,4.50
2017-11-26T01:30:16.231Z,4.50
2017-11-26T01:32:43.249Z,4.60
2017-11-26T01:35:09.487Z,4.60
2017-11-26T01:37:35.758Z,4.60
2017-11-26T01:40:02.026Z,4.50
2017-11-26T01:42:28.291Z,4.50
2017-11-26T01:44:55.304Z,4.50
2017-11-26T01:47:21.552Z,4.50
2017-11-26T01:49:48.609Z,4.40
2017-11-26T01:52:14.851Z,4.50
2017-11-26T01:54:41.900Z,4.50
2017-11-26T01:57:08.154Z,5.00
2017-11-26T01:59:34.434Z,4.50
2017-11-26T02:02:00.657Z,4.40
2017-11-26T02:04:27.655Z,4.50
2017-11-26T02:06:53.891Z,4.50
2017-11-26T02:09:20.930Z,4.60
2017-11-26T02:11:47.169Z,4.60
2017-11-26T02:14:13.441Z,4.70
2017-11-26T02:16:39.703Z,4.60
2017-11-26T02:19:05.952Z,4.70
2017-11-26T02:21:32.209Z,4.90
2017-11-26T02:23:59.217Z,4.50
2017-11-26T02:26:25.484Z,4.50
2017-11-26T02:28:52.483Z,4.30
2017-11-26T02:31:31.264Z,4.30
2017-11-26T02:34:10.674Z,4.20
2017-11-26T02:36:36.951Z,4.20
2017-11-26T02:39:03.214Z,4.30
2017-11-26T02:41:29.456Z,4.20
2017-11-26T02:43:55.676Z,4.20
2017-11-26T02:46:21.934Z,4.20
2017-11-26T02:48:48.918Z,4.20
2017-11-26T02:51:15.159Z,4.20
2017-11-26T02:53:41.428Z,4.10
2017-11-26T02:56:07.707Z,4.20
2017-11-26T02:58:34.004Z,4.20
2017-11-26T03:01:00.999Z,4.20
2017-11-26T03:03:27.238Z,3.40
2017-11-26T03:05:53.544Z,4.20
2017-11-26T03:08:19.799Z,4.20
2017-11-26T03:10:46.816Z,4.00
2017-11-26T03:13:13.058Z,3.60
2017-11-26T03:15:39.337Z,4.10
2017-11-26T03:18:05.609Z,4.00
2017-11-26T03:20:31.864Z,4.00
2017-11-26T03:22:58.224Z,4.10
2017-11-26T03:25:24.470Z,4.20
2017-11-26T03:27:50.731Z,4.10
2017-11-26T03:30:17.010Z,4.10
2017-11-26T03:32:43.274Z,4.20
2017-11-26T03:35:09.561Z,4.30
2017-11-26T03:37:35.850Z,4.20
2017-11-26T03:40:02.882Z,4.20
2017-11-26T03:42:29.130Z,4.20
2017-11-26T03:44:55.389Z,4.30
2017-11-26T03:47:21.668Z,4.30
2017-11-26T03:49:47.948Z,4.20
2017-11-26T03:52:14.933Z,4.40
2017-11-26T03:54:41.251Z,4.40
2017-11-26T03:57:08.286Z,4.40
2017-11-26T03:59:34.511Z,4.40
2017-11-26T04:02:00.804Z,4.40
2017-11-26T04:04:27.023Z,4.20
2017-11-26T04:06:54.015Z,4.40
2017-11-26T04:09:20.275Z,4.40
2017-11-26T04:11:46.526Z,4.50
2017-11-26T04:14:13.514Z,4.50
2017-11-26T04:16:39.758Z,4.50
2017-11-26T04:19:06.011Z,4.50
2017-11-26T04:21:33.080Z,4.50
2017-11-26T04:24:00.066Z,4.50
2017-11-26T04:26:26.308Z,4.50
2017-11-26T04:28:52.668Z,4.40
2017-11-26T04:31:19.671Z,4.50
2017-11-26T04:33:45.939Z,4.50
2017-11-26T04:36:12.928Z,4.60
2017-11-26T04:38:39.239Z,4.60
2017-11-26T04:41:05.523Z,4.50
2017-11-26T04:43:31.796Z,4.60
2017-11-26T04:45:58.053Z,4.60
2017-11-26T04:48:24.336Z,4.60
2017-11-26T04:50:50.586Z,4.70
2017-11-26T04:53:16.842Z,4.60
2017-11-26T04:55:43.129Z,4.60
2017-11-26T04:58:09.416Z,4.50
2017-11-26T05:00:35.693Z,4.60
2017-11-26T05:03:02.692Z,4.60
2017-11-26T05:05:28.975Z,4.60
2017-11-26T05:07:55.243Z,5.10
2017-11-26T05:10:21.491Z,4.70
2017-11-26T05:12:48.492Z,4.80
2017-11-26T05:15:14.746Z,4.80
2017-11-26T05:17:40.991Z,4.70
2017-11-26T05:20:07.946Z,4.80
2017-11-26T05:22:34.296Z,4.80
2017-11-26T05:25:00.540Z,4.80
2017-11-26T05:27:26.834Z,4.80
2017-11-26T05:29:53.802Z,4.90
2017-11-26T05:32:20.048Z,4.90
2017-11-26T05:34:46.297Z,4.90
2017-11-26T05:37:13.350Z,4.90
2017-11-26T05:39:39.621Z,4.90
2017-11-26T05:42:06.596Z,4.70
2017-11-26T05:44:32.849Z,4.80
2017-11-26T05:46:59.116Z,4.80
2017-11-26T05:49:25.375Z,4.70
2017-11-26T05:51:51.632Z,4.80
2017-11-26T05:54:17.876Z,4.80
2017-11-26T05:56:44.955Z,4.50
2017-11-26T05:59:11.280Z,4.50
2017-11-26T06:01:37.533Z,4.50
2017-11-26T06:04:03.789Z,4.60
2017-11-26T06:06:30.047Z,4.60
2017-11-26T06:08:56.266Z,4.60
2017-11-26T06:11:23.255Z,4.50
2017-11-26T06:13:49.547Z,4.50
2017-11-26T06:16:15.755Z,4.50
2017-11-26T06:18:42.771Z,4.50
2017-11-26T06:21:09.050Z,4.50
2017-11-26T06:23:35.327Z,3.70
2017-11-26T06:26:01.596Z,4.40
2017-11-26T06:28:27.839Z,4.10
2017-11-26T06:30:54.092Z,4.40
2017-11-26T06:33:20.391Z,4.30
2017-11-26T06:35:47.479Z,4.30
2017-11-26T06:38:13.705Z,4.30
2017-11-26T06:40:39.970Z,4.40
2017-11-26T06:43:06.212Z,4.40
2017-11-26T06:45:33.354Z,4.50
2017-11-26T06:47:59.595Z,4.50
2017-11-26T06:50:26.582Z,4.60
2017-11-26T06:52:52.857Z,4.60
2017-11-26T06:55:19.144Z,4.60
2017-11-26T06:57:45.433Z,4.60
2017-11-26T07:00:11.703Z,4.70
2017-11-26T07:02:37.982Z,4.60
2017-11-26T07:05:04.964Z,4.80
2017-11-26T07:07:31.322Z,4.60
2017-11-26T07:09:57.552Z,4.80
2017-11-26T07:12:23.820Z,4.80
2017-11-26T07:14:50.077Z,4.70
2017-11-26T07:17:16.395Z,4.70
2017-11-26T07:19:42.646Z,4.70
2017-11-26T07:22:08.907Z,4.80
2017-11-26T07:24:36.023Z,4.80
2017-11-26T07:27:02.287Z,4.80
2017-11-26T07:29:28.563Z,4.80
2017-11-26T07:31:54.812Z,5.30
2017-11-26T07:34:21.079Z,4.70
2017-11-26T07:36:47.417Z,4.70
2017-11-26T07:39:13.689Z,4.60
2017-11-26T07:41:39.919Z,4.60
2017-11-26T07:44:06.179Z,4.70
2017-11-26T07:46:32.536Z,4.70
2017-11-26T07:48:58.772Z,4.80
2017-11-26T07:51:25.089Z,4.80
2017-11-26T07:53:52.091Z,4.80
2017-11-26T07:56:18.339Z,4.80
2017-11-26T07:58:44.590Z,4.90
2017-11-26T08:01:10.894Z,4.90
2017-11-26T08:03:37.119Z,5.00
2017-11-26T08:06:03.350Z,4.90
2017-11-26T08:08:30.320Z,4.90
2017-11-26T08:10:56.544Z,4.90
2017-11-26T08:13:23.503Z,5.00
2017-11-26T08:15:49.741Z,5.00
2017-11-26T08:18:15.972Z,5.00
2017-11-26T08:20:42.262Z,5.10
2017-11-26T08:23:09.294Z,5.20
2017-11-26T08:25:36.274Z,5.20
2017-11-26T08:28:02.535Z,5.20
2017-11-26T08:30:29.452Z,5.40
2017-11-26T08:32:55.713Z,5.30
2017-11-26T08:35:22.010Z,5.20
2017-11-26T08:37:49.028Z,5.10
2017-11-26T08:40:16.004Z,5.00
2017-11-26T08:42:42.283Z,5.00
2017-11-26T08:45:08.539Z,4.60
2017-11-26T08:47:35.614Z,5.20
2017-11-26T08:50:01.870Z,5.20
2017-11-26T08:52:28.879Z,5.10
2017-11-26T08:54:55.117Z,5.00
2017-11-26T08:57:21.383Z,5.10
2017-11-26T08:59:48.370Z,5.20
2017-11-26T09:02:14.687Z,5.20
2017-11-26T09:04:41.023Z,5.30
2017-11-26T09:07:07.303Z,5.40
2017-11-26T09:09:33.571Z,5.40
2017-11-26T09:11:59.946Z,5.30
2017-11-26T09:14:26.203Z,5.40
2017-11-26T09:16:53.210Z,5.60
2017-11-26T09:19:19.474Z,5.50
2017-11-26T09:21:45.820Z,5.60
2017-11-26T09:24:12.066Z,5.70
2017-11-26T09:26:39.110Z,5.80
2017-11-26T09:29:05.386Z,5.90
2017-11-26T09:31:31.743Z,5.90
2017-11-26T09:33:58.027Z,6.00
2017-11-26T09:36:24.279Z,6.10
2017-11-26T09:38:50.534Z,6.10
2017-11-26T09:41:17.531Z,6.20
2017-11-26T09:43:43.775Z,6.20
2017-11-26T09:46:10.851Z,6.10
2017-11-26T09:48:37.180Z,5.30
2017-11-26T09:51:04.251Z,6.20
2017-11-26T09:53:30.578Z,6.20
2017-11-26T09:55:56.900Z,6.10
2017-11-26T09:58:23.148Z,6.20
2017-11-26T10:00:49.411Z,6.10
2017-11-26T10:03:16.423Z,6.10
2017-11-26T10:05:42.696Z,6.10
2017-11-26T10:08:09.707Z,6.10
2017-11-26T10:10:35.974Z,6.10
2017-11-26T10:13:02.269Z,6.20
2017-11-26T10:15:28.499Z,6.20
2017-11-26T10:17:54.776Z,6.20
2017-11-26T10:20:21.778Z,6.10
2017-11-26T10:22:48.062Z,6.20
2017-11-26T10:25:14.417Z,6.10
2017-11-26T10:27:40.695Z,6.10
2017-11-26T10:30:07.695Z,6.10
2017-11-26T10:32:34.015Z,6.10
2017-11-26T10:35:00.315Z,6.10
2017-11-26T10:37:26.600Z,6.20
2017-11-26T10:39:53.743Z,6.30
2017-11-26T10:42:20.016Z,6.30
2017-11-26T10:44:46.301Z,6.30
2017-11-26T10:47:12.563Z,6.30
2017-11-26T10:49:39.572Z,6.20
2017-11-26T10:52:05.824Z,6.10
2017-11-26T10:54:32.890Z,6.20
2017-11-26T10:56:59.181Z,6.20
2017-11-26T10:59:26.230Z,6.30
2017-11-26T11:01:52.499Z,6.30
2017-11-26T11:04:18.806Z,6.30
2017-11-26T11:06:45.800Z,6.30
2017-11-26T11:09:12.147Z,6.30
2017-11-26T11:11:38.408Z,6.30
2017-11-26T11:14:05.452Z,6.30
2017-11-26T11:16:32.528Z,6.40
2017-11-26T11:18:58.827Z,6.40
2017-11-26T11:21:25.896Z,6.60
2017-11-26T11:23:52.882Z,6.70
2017-11-26T11:26:19.129Z,6.70
2017-11-26T11:28:46.223Z,6.60
2017-11-26T11:31:13.218Z,6.60
2017-11-26T11:33:39.478Z,6.60
2017-11-26T11:36:05.722Z,6.70
2017-11-26T11:38:31.967Z,6.70
2017-11-26T11:40:58.279Z,6.80
2017-11-26T11:43:24.563Z,6.70
2017-11-26T11:45:51.599Z,6.80
2017-11-26T11:48:18.703Z,7.00
2017-11-26T11:50:44.979Z,7.00
2017-11-26T11:53:11.981Z,6.80
2017-11-26T11:55:38.275Z,6.80
2017-11-26T11:58:05.308Z,6.60
2017-11-26T12:00:31.579Z,6.60
2017-11-26T12:02:57.867Z,6.70
2017-11-26T12:05:24.163Z,6.70
2017-11-26T12:07:50.480Z,5.90
2017-11-26T12:10:16.760Z,6.70
2017-11-26T12:12:43.079Z,6.60
2017-11-26T12:15:10.104Z,6.50
2017-11-26T12:17:36.386Z,6.50
2017-11-26T12:20:02.638Z,6.60
2017-11-26T12:22:28.941Z,6.60
2017-11-26T12:24:55.222Z,6.70
2017-11-26T12:27:21.503Z,6.80
2017-11-26T12:29:47.786Z,7.00
2017-11-26T12:32:14.142Z,7.40
2017-11-26T12:34:41.207Z,6.60
2017-11-26T12:37:07.476Z,6.60
2017-11-26T12:39:33.805Z,6.70
2017-11-26T12:42:00.826Z,6.60
2017-11-26T12:44:27.149Z,6.60
2017-11-26T12:46:53.421Z,6.60
2017-11-26T12:49:19.740Z,6.40
2017-11-26T12:51:45.984Z,5.60
2017-11-26T12:54:12.280Z,6.60
2017-11-26T12:56:38.523Z,6.80
2017-11-26T12:59:04.775Z,6.70
2017-11-26T13:01:30.999Z,6.70
2017-11-26T13:03:58.008Z,6.60
2017-11-26T13:06:24.297Z,6.60
2017-11-26T13:08:50.576Z,6.60
2017-11-26T13:11:16.815Z,6.50
2017-11-26T13:13:43.085Z,6.50
2017-11-26T13:16:10.052Z,6.60
2017-11-26T13:18:37.384Z,6.60
2017-11-26T13:21:03.456Z,6.60
2017-11-26T13:23:29.519Z,6.60
2017-11-26T13:25:55.627Z,6.60
2017-11-26T13:28:22.444Z,6.70
2017-11-26T13:30:48.524Z,6.70
2017-11-26T13:33:14.599Z,6.70
2017-11-26T13:35:41.435Z,6.80
2017-11-26T13:38:08.468Z,6.70
2017-11-26T13:40:34.540Z,6.70
2017-11-26T13:43:00.611Z,6.90
2017-11-26T13:45:26.696Z,6.80
2017-11-26T13:47:52.770Z,7.60
2017-11-26T13:50:18.839Z,7.00
2017-11-26T13:52:44.918Z,7.00
2017-11-26T13:55:11.760Z,6.90
2017-11-26T13:57:38.624Z,6.90
2017-11-26T14:00:04.715Z,6.90
2017-11-26T14:02:30.796Z,7.00
2017-11-26T14:04:56.911Z,6.90
2017-11-26T14:07:23.002Z,7.00
2017-11-26T14:09:49.811Z,6.90
2017-11-26T14:12:15.881Z,6.90
2017-11-26T14:14:42.694Z,7.00
2017-11-26T14:17:08.763Z,7.00
2017-11-26T14:19:34.903Z,7.10
2017-11-26T14:22:00.973Z,7.00
2017-11-26T14:24:27.027Z,7.00
2017-11-26T14:26:53.159Z,7.00
2017-11-26T14:29:19.937Z,7.00
2017-11-26T14:31:46.203Z,7.00
2017-11-26T14:34:13.281Z,6.90
2017-11-26T14:36:39.547Z,6.90
2017-11-26T14:39:05.838Z,7.00
2017-11-26T14:41:32.119Z,6.80
2017-11-26T14:43:59.152Z,7.00
2017-11-26T14:46:25.390Z,7.00
2017-11-26T14:48:51.674Z,7.00
2017-11-26T14:51:18.824Z,7.10
2017-11-26T14:53:45.071Z,7.00
2017-11-26T14:56:11.322Z,6.90
2017-11-26T14:58:38.349Z,6.90
2017-11-26T15:01:04.579Z,6.90
2017-11-26T15:03:30.874Z,6.80
2017-11-26T15:05:57.867Z,6.80
2017-11-26T15:08:24.953Z,6.80
2017-11-26T15:10:51.215Z,6.80
2017-11-26T15:13:17.464Z,6.90
2017-11-26T15:15:43.871Z,6.80
2017-11-26T15:18:10.897Z,6.60
2017-11-26T15:20:37.161Z,6.60
2017-11-26T15:23:03.430Z,6.60
2017-11-26T15:25:29.721Z,6.70
2017-11-26T15:27:55.945Z,6.60
2017-11-26T15:30:22.184Z,6.60
2017-11-26T15:32:48.451Z,6.70
2017-11-26T15:35:14.719Z,6.80
2017-11-26T15:37:40.983Z,6.80
2017-11-26T15:40:07.269Z,6.80
2017-11-26T15:42:34.401Z,6.60
2017-11-26T15:45:00.683Z,6.60
2017-11-26T15:47:26.950Z,6.60
2017-11-26T15:49:53.267Z,6.60
2017-11-26T15:52:19.530Z,6.60
2017-11-26T15:54:46.471Z,6.50
2017-11-26T15:57:12.574Z,6.50
2017-11-26T15:59:38.639Z,6.50
2017-11-26T16:02:04.724Z,6.50
2017-11-26T16:04:30.820Z,6.50
2017-11-26T16:06:57.647Z,6.30
2017-11-26T16:09:23.735Z,6.30
2017-11-26T16:11:49.806Z,6.40
2017-11-26T16:14:16.124Z,6.60
2017-11-26T16:16:42.927Z,6.70
2017-11-26T16:19:09.184Z,6.70
2017-11-26T16:21:36.083Z,6.60
2017-11-26T16:24:02.199Z,6.60
2017-11-26T16:26:28.276Z,6.60
2017-11-26T16:28:55.087Z,6.40
2017-11-26T16:31:21.171Z,5.70
2017-11-26T16:33:47.242Z,6.50
2017-11-26T16:36:13.342Z,6.50
2017-11-26T16:38:39.555Z,6.70
2017-11-26T16:41:05.744Z,7.00
2017-11-26T16:43:32.608Z,6.60
2017-11-26T16:45:58.688Z,6.50
2017-11-26T16:48:25.579Z,6.60
2017-11-26T16:50:51.668Z,6.00
2017-11-26T16:53:18.500Z,6.70
2017-11-26T16:55:45.352Z,6.60
2017-11-26T16:58:11.423Z,7.10
2017-11-26T17:00:37.519Z,6.50
2017-11-26T17:03:04.390Z,6.60
2017-11-26T17:05:30.512Z,6.60
2017-11-26T17:07:56.596Z,6.50
2017-11-26T17:10:23.483Z,6.60
2017-11-26T17:12:49.618Z,6.60
2017-11-26T17:15:15.754Z,6.70
2017-11-26T17:17:41.823Z,6.50
2017-11-26T17:20:08.644Z,6.50
2017-11-26T17:22:35.479Z,6.30
2017-11-26T17:25:03.414Z,6.40
2017-11-26T17:27:29.545Z,6.40
2017-11-26T17:29:55.606Z,6.40
2017-11-26T17:32:22.436Z,6.40
2017-11-26T17:34:48.528Z,6.40
2017-11-26T17:37:15.359Z,6.30
2017-11-26T17:39:41.456Z,6.30
2017-11-26T17:42:09.707Z,6.40
2017-11-26T17:44:36.576Z,6.30
2017-11-26T17:47:02.667Z,5.50
2017-11-26T17:49:29.501Z,6.30
2017-11-26T17:51:55.592Z,6.30
2017-11-26T17:54:21.720Z,6.40
2017-11-26T17:56:48.139Z,6.80
2017-11-26T17:59:14.280Z,6.30
2017-11-26T18:01:40.418Z,6.30
2017-11-26T18:04:06.567Z,6.30
2017-11-26T18:06:33.378Z,6.30
2017-11-26T18:08:59.544Z,6.30
2017-11-26T18:11:25.653Z,5.50
2017-11-26T18:13:52.570Z,6.40
2017-11-26T18:16:18.741Z,6.90
2017-11-26T18:18:46.101Z,6.30
2017-11-26T18:21:12.223Z,6.30
2017-11-26T18:23:39.067Z,6.20
2017-11-26T18:26:05.257Z,6.90
2017-11-26T18:28:31.437Z,6.20
2017-11-26T18:30:57.551Z,6.20
2017-11-26T18:33:23.658Z,6.20
2017-11-26T18:35:50.543Z,6.20
2017-11-26T18:38:16.733Z,6.20
2017-11-26T18:40:42.802Z,6.10
2017-11-26T18:43:08.875Z,6.20
2017-11-26T18:45:35.191Z,6.30
2017-11-26T18:48:01.358Z,5.80
2017-11-26T18:50:27.478Z,6.20
2017-11-26T18:52:53.566Z,6.20
2017-11-26T18:55:20.620Z,6.00
2017-11-26T18:57:47.455Z,6.00
2017-11-26T19:00:13.581Z,6.00
2017-11-26T19:02:40.983Z,6.20
2017-11-26T19:05:07.054Z,6.20
2017-11-26T19:07:33.937Z,6.10
2017-11-26T19:10:00.082Z,6.20
2017-11-26T19:12:26.184Z,6.20
2017-11-26T19:14:52.320Z,6.20
2017-11-26T19:17:18.468Z,6.20
2017-11-26T19:19:44.568Z,6.20
2017-11-26T19:22:10.851Z,6.20
2017-11-26T19:24:37.659Z,6.20
2017-11-26T19:27:03.787Z,6.20
2017-11-26T19:29:29.886Z,6.20
2017-11-26T19:31:56.081Z,6.10
2017-11-26T19:34:22.204Z,6.10
2017-11-26T19:36:48.671Z,6.00
2017-11-26T19:39:14.789Z,6.00
2017-11-26T19:41:40.922Z,5.90
2017-11-26T19:44:07.787Z,5.90
2017-11-26T19:46:34.671Z,5.80
2017-11-26T19:49:01.552Z,5.90
2017-11-26T19:51:27.643Z,5.90
2017-11-26T19:53:53.802Z,5.80
2017-11-26T19:56:20.010Z,5.60
2017-11-26T19:58:46.145Z,5.70
2017-11-26T20:01:13.071Z,5.70
2017-11-26T20:03:39.210Z,5.70
2017-11-26T20:06:05.272Z,5.70
2017-11-26T20:08:31.338Z,5.70
2017-11-26T20:10:57.480Z,5.70
2017-11-26T20:13:23.545Z,5.70
2017-11-26T20:15:50.411Z,5.70
2017-11-26T20:18:16.519Z,5.70
2017-11-26T20:20:43.394Z,5.70
2017-11-26T20:23:09.615Z,5.70
2017-11-26T20:25:35.719Z,5.70
2017-11-26T20:28:02.609Z,5.70
2017-11-26T20:30:28.685Z,5.70
2017-11-26T20:32:55.563Z,5.60
2017-11-26T20:35:21.680Z,5.60
2017-11-26T20:37:47.813Z,5.60
2017-11-26T20:40:14.028Z,5.70
2017-11-26T20:42:40.161Z,5.70
2017-11-26T20:45:06.267Z,5.60
2017-11-26T20:47:32.317Z,5.60
2017-11-26T20:49:58.427Z,5.60
2017-11-26T20:52:24.557Z,5.70
2017-11-26T20:54:50.626Z,5.70
2017-11-26T20:57:16.717Z,5.60
2017-11-26T20:59:42.755Z,5.60
2017-11-26T21:02:08.810Z,5.70
2017-11-26T21:04:35.607Z,5.60
2017-11-26T21:07:01.675Z,5.60
2017-11-26T21:09:28.495Z,5.50
2017-11-26T21:11:54.547Z,5.60
2017-11-26T21:14:21.366Z,5.50
2017-11-26T21:16:47.532Z,5.30
2017-11-26T21:19:13.610Z,5.60
2017-11-26T21:21:39.795Z,5.70
2017-11-26T21:24:05.873Z,5.70
2017-11-26T21:26:32.048Z,5.60
2017-11-26T21:28:58.175Z,5.70
2017-11-26T21:31:24.244Z,5.70
2017-11-26T21:33:50.319Z,5.60
2017-11-26T21:36:16.380Z,5.60
2017-11-26T21:38:42.523Z,5.60
2017-11-26T21:41:09.303Z,5.60
2017-11-26T21:43:35.362Z,5.60
2017-11-26T21:46:01.414Z,5.60
2017-11-26T21:48:28.287Z,5.50
2017-11-26T21:50:54.353Z,5.40
2017-11-26T21:53:20.468Z,5.40
2017-11-26T21:55:46.539Z,5.40
2017-11-26T21:58:12.579Z,5.30
2017-11-26T22:00:38.630Z,5.30
2017-11-26T22:03:04.711Z,5.20
2017-11-26T22:05:30.795Z,5.20
2017-11-26T22:07:56.951Z,5.20
2017-11-26T22:10:23.753Z,5.30
2017-11-26T22:12:49.798Z,5.20
2017-11-26T22:15:15.847Z,5.20
2017-11-26T22:17:41.969Z,5.20
2017-11-26T22:20:08.047Z,5.30
2017-11-26T22:22:34.256Z,4.60
2017-11-26T22:25:01.358Z,5.40
2017-11-26T22:27:28.153Z,5.30
2017-11-26T22:29:54.208Z,5.30
2017-11-26T22:32:21.002Z,5.40
2017-11-26T22:34:47.067Z,5.40
2017-11-26T22:37:13.139Z,5.30
2017-11-26T22:39:39.312Z,5.40
2017-11-26T22:42:05.379Z,5.40
2017-11-26T22:44:31.443Z,5.20
2017-11-26T22:46:57.492Z,5.00
2017-11-26T22:49:23.662Z,4.90
2017-11-26T22:51:49.786Z,4.70
2017-11-26T22:54:15.853Z,4.80
2017-11-26T22:56:41.906Z,5.40
2017-11-26T22:59:07.964Z,4.90
2017-11-26T23:01:34.032Z,5.00
2017-11-26T23:04:00.393Z,5.00
2017-11-26T23:06:27.374Z,5.00
2017-11-26T23:08:54.154Z,4.90
2017-11-26T23:11:20.934Z,4.80
2017-11-26T23:13:46.987Z,4.80
2017-11-26T23:16:13.068Z,4.90
2017-11-26T23:18:39.336Z,4.90
2017-11-26T23:21:05.590Z,4.90
2017-11-26T23:23:32.607Z,5.00
2017-11-26T23:25:58.897Z,5.00
2017-11-26T23:28:25.147Z,5.00
2017-11-26T23:30:51.459Z,5.00
2017-11-26T23:33:17.736Z,5.00
2017-11-26T23:35:44.066Z,5.00
2017-11-26T23:38:10.322Z,5.00
2017-11-26T23:40:36.576Z,5.00
2017-11-26T23:43:02.854Z,5.00
2017-11-26T23:45:29.105Z,4.90
2017-11-26T23:47:56.152Z,4.80
2017-11-26T23:50:23.139Z,4.80
2017-11-26T23:52:49.375Z,4.80
2017-11-26T23:55:15.607Z,4.70
2017-11-26T23:57:41.846Z,4.80
